createdAt,value
2018-06-18T00:01:20.231Z,57.50
2018-06-18T00:04:53.473Z,57.60
2018-06-18T00:08:26.745Z,57.50
2018-06-18T00:12:00.000Z,57.60
2018-06-18T00:15:33.256Z,57.80
2018-06-18T00:19:06.516Z,57.60
2018-06-18T00:22:39.757Z,57.80
2018-06-18T00:26:14.243Z,57.80
2018-06-18T00:29:47.532Z,57.90
2018-06-18T00:33:20.831Z,57.90
2018-06-18T00:36:54.080Z,57.90
2018-06-18T00:44:00.299Z,57.90
2018-06-18T00:47:33.532Z,58.00
2018-06-18T00:51:06.808Z,58.10
2018-06-18T00:54:40.117Z,58.10
2018-06-18T01:01:46.883Z,58.40
2018-06-18T01:08:53.133Z,58.60
2018-06-18T01:12:26.396Z,58.70
2018-06-18T01:15:59.612Z,58.80
2018-06-18T01:19:32.837Z,58.80
2018-06-18T01:24:14.484Z,58.90
2018-06-18T01:27:47.714Z,58.80
2018-06-18T01:31:21.016Z,58.70
2018-06-18T01:34:54.605Z,58.80
2018-06-18T01:38:27.858Z,58.70
2018-06-18T01:42:01.086Z,58.60
2018-06-18T01:45:34.327Z,58.50
2018-06-18T01:49:07.537Z,58.40
2018-06-18T01:52:40.763Z,58.50
2018-06-18T01:56:13.988Z,58.50
2018-06-18T01:59:47.228Z,58.60
2018-06-18T02:03:20.456Z,58.60
2018-06-18T02:06:53.801Z,58.70
2018-06-18T02:10:27.077Z,58.70
2018-06-18T02:14:00.268Z,58.90
2018-06-18T02:17:33.482Z,59.10
2018-06-18T02:21:06.781Z,59.30
2018-06-18T02:24:40.032Z,59.60
2018-06-18T02:28:18.595Z,59.80
2018-06-18T02:31:57.316Z,59.90
2018-06-18T02:39:12.323Z,60.80
2018-06-18T02:46:18.730Z,60.30
2018-06-18T02:53:24.992Z,60.30
2018-06-18T02:57:03.063Z,60.50
2018-06-18T03:00:36.305Z,60.70
2018-06-18T03:04:09.625Z,60.90
2018-06-18T03:07:42.842Z,61.00
2018-06-18T03:11:16.228Z,61.20
2018-06-18T03:14:49.458Z,61.40
2018-06-18T03:18:28.099Z,61.50
2018-06-18T03:22:06.810Z,61.90
2018-06-18T03:25:45.374Z,62.10
2018-06-18T03:29:20.992Z,62.30
2018-06-18T03:32:54.227Z,62.40
2018-06-18T03:36:27.447Z,62.60
2018-06-18T03:40:00.695Z,62.80
2018-06-18T03:43:36.134Z,62.90
2018-06-18T03:47:15.197Z,63.90
2018-06-18T03:50:48.423Z,63.20
2018-06-18T03:54:21.647Z,63.50
2018-06-18T03:57:54.931Z,63.50
2018-06-18T04:01:46.408Z,63.30
2018-06-18T04:05:25.002Z,63.10
2018-06-18T04:09:03.853Z,62.60
2018-06-18T04:12:37.107Z,63.20
2018-06-18T04:16:10.342Z,62.10
2018-06-18T04:19:43.568Z,61.90
2018-06-18T04:23:17.101Z,61.60
2018-06-18T04:26:50.381Z,61.10
2018-06-18T04:30:23.645Z,60.70
2018-06-18T04:37:36.007Z,60.30
2018-06-18T04:41:09.231Z,60.00
2018-06-18T04:44:47.707Z,59.90
2018-06-18T04:48:26.283Z,59.80
2018-06-18T04:51:59.532Z,59.80
2018-06-18T04:59:05.752Z,58.90
2018-06-18T05:02:39.552Z,58.90
2018-06-18T05:06:12.853Z,58.60
2018-06-18T05:10:04.743Z,58.50
2018-06-18T05:13:37.946Z,58.10
2018-06-18T05:17:11.175Z,57.60
2018-06-18T05:20:44.453Z,57.30
2018-06-18T05:24:17.692Z,57.40
2018-06-18T05:27:51.025Z,57.50
2018-06-18T05:31:24.316Z,57.80
2018-06-18T05:34:57.661Z,57.40
2018-06-18T05:38:35.913Z,57.50
2018-06-18T05:42:09.126Z,57.40
2018-06-18T05:45:42.379Z,57.30
2018-06-18T05:49:15.624Z,57.40
2018-06-18T05:52:50.099Z,57.50
2018-06-18T05:56:23.411Z,57.50
2018-06-18T05:59:56.632Z,57.00
2018-06-18T06:03:29.920Z,57.00
2018-06-18T06:07:03.129Z,56.60
2018-06-18T06:10:36.547Z,56.60
2018-06-18T06:14:09.780Z,56.10
2018-06-18T06:17:43.020Z,55.50
2018-06-18T06:21:16.361Z,55.20
2018-06-18T06:24:49.604Z,55.10
2018-06-18T06:28:25.115Z,54.00
2018-06-18T06:32:08.115Z,53.50
2018-06-18T06:35:47.057Z,53.50
2018-06-18T06:39:22.700Z,52.90
2018-06-18T06:43:06.342Z,52.60
2018-06-18T06:46:44.272Z,52.50
2018-06-18T06:50:17.763Z,51.60
2018-06-18T06:57:24.019Z,50.60
2018-06-18T07:00:57.250Z,50.00
2018-06-18T07:08:03.533Z,48.40
2018-06-18T07:11:36.881Z,47.40
2018-06-18T07:15:10.115Z,46.30
2018-06-18T07:18:43.363Z,45.00
2018-06-18T07:22:16.697Z,45.30
2018-06-18T07:25:50.032Z,45.30
2018-06-18T07:29:23.295Z,44.70
2018-06-18T07:32:56.550Z,44.20
2018-06-18T07:40:02.778Z,45.70
2018-06-18T07:43:36.067Z,45.80
2018-06-18T07:47:09.295Z,45.70
2018-06-18T07:50:42.580Z,45.60
2018-06-18T07:54:15.824Z,45.60
2018-06-18T07:57:49.076Z,45.50
2018-06-18T08:01:22.309Z,45.00
2018-06-18T08:04:55.546Z,45.00
2018-06-18T08:08:28.795Z,45.40
2018-06-18T08:12:02.057Z,45.40
2018-06-18T08:15:35.303Z,45.20
2018-06-18T08:19:08.617Z,45.20
2018-06-18T08:22:41.842Z,45.10
2018-06-18T08:29:48.074Z,45.40
2018-06-18T08:33:21.315Z,45.60
2018-06-18T08:36:54.619Z,45.80
2018-06-18T08:40:27.855Z,46.00
2018-06-18T08:44:01.083Z,46.30
2018-06-18T08:47:34.319Z,46.30
2018-06-18T08:51:12.957Z,46.70
2018-06-18T08:54:51.635Z,46.80
2018-06-18T08:58:30.178Z,46.80
2018-06-18T09:02:03.446Z,46.80
2018-06-18T09:05:43.271Z,47.00
2018-06-18T09:09:16.521Z,46.30
2018-06-18T09:12:49.785Z,45.50
2018-06-18T09:16:23.101Z,45.00
2018-06-18T09:19:56.345Z,44.70
2018-06-18T09:23:29.612Z,44.30
2018-06-18T09:27:08.203Z,44.00
2018-06-18T09:30:41.444Z,44.00
2018-06-18T09:34:14.734Z,43.90
2018-06-18T09:37:47.987Z,43.50
2018-06-18T09:41:21.239Z,43.80
2018-06-18T09:44:54.482Z,44.10
2018-06-18T09:48:33.155Z,44.80
2018-06-18T09:52:11.773Z,45.20
2018-06-18T09:55:50.534Z,45.00
2018-06-18T09:59:39.638Z,44.80
2018-06-18T10:03:12.919Z,44.50
2018-06-18T10:06:46.209Z,43.90
2018-06-18T10:10:19.428Z,43.70
2018-06-18T10:13:52.683Z,43.50
2018-06-18T10:17:26.377Z,44.00
2018-06-18T10:20:59.615Z,43.20
2018-06-18T10:24:32.937Z,43.10
2018-06-18T10:28:06.474Z,42.90
2018-06-18T10:35:18.177Z,43.00
2018-06-18T10:42:35.215Z,43.00
2018-06-18T10:46:08.472Z,43.30
2018-06-18T10:49:41.716Z,43.20
2018-06-18T10:53:14.971Z,43.40
2018-06-18T10:56:48.243Z,43.10
2018-06-18T11:00:24.507Z,43.30
2018-06-18T11:03:58.410Z,43.80
2018-06-18T11:14:38.692Z,42.40
2018-06-18T11:18:17.332Z,42.20
2018-06-18T11:21:56.164Z,42.60
2018-06-18T11:25:34.901Z,42.50
2018-06-18T11:32:41.461Z,42.50
2018-06-18T11:36:14.848Z,42.40
2018-06-18T11:39:48.215Z,42.50
2018-06-18T11:43:21.611Z,42.50
2018-06-18T11:46:54.953Z,42.60
2018-06-18T11:50:28.340Z,42.60
2018-06-18T11:54:01.768Z,42.60
2018-06-18T11:57:35.100Z,42.90
2018-06-18T12:01:13.785Z,42.80
2018-06-18T12:04:52.600Z,42.70
2018-06-18T12:08:31.442Z,42.40
2018-06-18T12:12:04.701Z,42.00
2018-06-18T12:15:37.944Z,41.80
2018-06-18T12:19:11.214Z,41.30
2018-06-18T12:26:17.502Z,41.50
2018-06-18T12:29:50.791Z,42.80
2018-06-18T12:33:24.060Z,42.00
2018-06-18T12:36:57.299Z,41.80
2018-06-18T12:40:30.538Z,40.80
2018-06-18T12:44:03.784Z,40.20
2018-06-18T12:47:42.443Z,39.80
2018-06-18T12:51:21.082Z,39.80
2018-06-18T12:54:59.632Z,40.30
2018-06-18T12:58:32.883Z,40.40
2018-06-18T13:02:11.000Z,40.40
2018-06-18T13:05:44.216Z,40.30
2018-06-18T13:09:17.468Z,40.10
2018-06-18T13:12:51.147Z,38.80
2018-06-18T13:16:24.477Z,37.80
2018-06-18T13:19:58.415Z,37.60
2018-06-18T13:23:32.492Z,37.60
2018-06-18T13:27:05.739Z,37.80
2018-06-18T13:30:39.081Z,37.50
2018-06-18T13:34:12.350Z,36.70
2018-06-18T13:37:50.956Z,36.10
2018-06-18T13:41:29.623Z,36.30
2018-06-18T13:45:08.376Z,37.30
2018-06-18T13:49:00.201Z,36.60
2018-06-18T13:52:35.946Z,36.50
2018-06-18T13:56:09.339Z,36.70
2018-06-18T13:59:42.721Z,36.40
2018-06-18T14:03:15.973Z,36.30
2018-06-18T14:06:49.225Z,36.60
2018-06-18T14:10:22.467Z,36.70
2018-06-18T14:13:55.908Z,37.20
2018-06-18T14:17:29.072Z,36.60
2018-06-18T14:21:02.295Z,35.90
2018-06-18T14:24:35.544Z,34.90
2018-06-18T14:31:47.102Z,34.10
2018-06-18T14:35:25.668Z,33.30
2018-06-18T14:42:37.638Z,32.60
2018-06-18T14:46:10.917Z,33.10
2018-06-18T14:49:44.334Z,33.90
2018-06-18T14:53:17.635Z,34.50
2018-06-18T14:56:52.603Z,34.80
2018-06-18T15:00:27.693Z,34.80
2018-06-18T15:04:01.112Z,34.70
2018-06-18T15:07:34.470Z,35.20
2018-06-18T15:11:07.784Z,35.80
2018-06-18T15:14:41.124Z,35.90
2018-06-18T15:18:14.500Z,36.30
2018-06-18T15:21:52.007Z,36.00
2018-06-18T15:25:26.538Z,35.90
2018-06-18T15:28:59.854Z,35.70
2018-06-18T15:32:33.223Z,35.50
2018-06-18T15:36:06.553Z,35.70
2018-06-18T15:43:12.967Z,36.00
2018-06-18T15:46:46.274Z,35.90
2018-06-18T15:50:19.722Z,36.60
2018-06-18T15:53:53.059Z,36.80
2018-06-18T15:57:26.363Z,36.10
2018-06-18T16:00:59.737Z,34.60
2018-06-18T16:04:33.035Z,33.40
2018-06-18T16:08:06.467Z,32.50
2018-06-18T16:11:39.825Z,31.70
2018-06-18T16:15:13.192Z,32.60
2018-06-18T16:18:46.533Z,32.50
2018-06-18T16:22:19.846Z,32.90
2018-06-18T16:25:53.303Z,32.90
2018-06-18T16:29:26.720Z,33.10
2018-06-18T16:33:00.086Z,34.20
2018-06-18T16:36:33.385Z,35.40
2018-06-18T16:40:07.052Z,36.00
2018-06-18T16:43:40.369Z,37.10
2018-06-18T16:47:13.719Z,37.60
2018-06-18T16:50:47.045Z,37.60
2018-06-18T16:54:21.509Z,37.90
2018-06-18T16:57:54.875Z,38.40
2018-06-18T17:01:28.208Z,38.50
2018-06-18T17:05:01.596Z,39.20
2018-06-18T17:08:34.914Z,39.50
2018-06-18T17:12:08.273Z,40.10
2018-06-18T17:15:41.640Z,40.50
2018-06-18T17:19:14.921Z,40.60
2018-06-18T17:22:48.216Z,40.90
2018-06-18T17:26:21.654Z,41.00
2018-06-18T17:33:28.247Z,41.50
2018-06-18T17:37:01.542Z,41.40
2018-06-18T17:40:34.940Z,41.50
2018-06-18T17:44:08.377Z,42.50
2018-06-18T17:47:41.793Z,42.10
2018-06-18T17:51:15.195Z,42.00
2018-06-18T17:54:48.766Z,42.30
2018-06-18T17:58:22.229Z,42.40
2018-06-18T18:01:55.565Z,41.60
2018-06-18T18:05:28.895Z,41.80
2018-06-18T18:09:02.709Z,41.80
2018-06-18T18:12:35.994Z,42.00
2018-06-18T18:16:11.068Z,42.30
2018-06-18T18:20:10.238Z,42.70
2018-06-18T18:23:43.767Z,43.10
2018-06-18T18:27:17.101Z,43.50
2018-06-18T18:30:50.567Z,43.90
2018-06-18T18:34:23.863Z,44.10
2018-06-18T18:41:30.307Z,44.80
2018-06-18T18:45:03.789Z,45.00
2018-06-18T18:48:37.105Z,45.30
2018-06-18T18:52:10.445Z,45.70
2018-06-18T18:55:56.604Z,46.00
2018-06-18T18:59:31.678Z,46.30
2018-06-18T19:03:05.136Z,46.50
2018-06-18T19:06:38.445Z,46.80
2018-06-18T19:10:16.200Z,47.10
2018-06-18T19:20:59.669Z,47.90
2018-06-18T19:24:33.176Z,48.30
2018-06-18T19:28:06.460Z,48.60
2018-06-18T19:31:40.243Z,48.80
2018-06-18T19:35:14.396Z,49.10
2018-06-18T19:38:48.104Z,49.30
2018-06-18T19:42:22.285Z,49.60
2018-06-18T19:46:01.117Z,49.80
2018-06-18T19:49:38.135Z,50.20
2018-06-18T19:53:15.193Z,50.40
2018-06-18T19:56:52.584Z,50.60
2018-06-18T20:00:40.533Z,50.80
2018-06-18T20:04:16.175Z,51.00
2018-06-18T20:07:55.102Z,51.10
2018-06-18T20:11:33.084Z,51.40
2018-06-18T20:15:13.248Z,51.50
2018-06-18T20:18:47.726Z,51.70
2018-06-18T20:22:21.024Z,51.80
2018-06-18T20:26:03.923Z,52.00
2018-06-18T20:29:38.819Z,52.10
2018-06-18T20:33:15.361Z,52.30
2018-06-18T20:36:49.028Z,52.40
2018-06-18T20:40:23.652Z,52.70
2018-06-18T20:44:02.787Z,52.90
2018-06-18T20:47:36.366Z,53.10
2018-06-18T20:51:10.027Z,53.40
2018-06-18T20:54:43.292Z,53.60
2018-06-18T20:58:16.508Z,53.70
2018-06-18T21:01:49.763Z,53.90
2018-06-18T21:05:22.997Z,54.00
2018-06-18T21:08:56.246Z,54.30
2018-06-18T21:12:29.474Z,54.50
2018-06-18T21:16:02.683Z,54.70
2018-06-18T21:19:35.886Z,54.90
2018-06-18T21:23:09.107Z,55.00
2018-06-18T21:26:42.395Z,55.30
2018-06-18T21:30:15.736Z,55.50
2018-06-18T21:37:22.039Z,55.70
2018-06-18T21:40:55.285Z,55.70
2018-06-18T21:44:32.967Z,55.90
2018-06-18T21:48:06.734Z,56.00
2018-06-18T21:51:40.120Z,56.10
2018-06-18T21:55:13.890Z,56.20
2018-06-18T21:58:47.155Z,56.30
2018-06-18T22:02:20.453Z,56.30
2018-06-18T22:05:53.720Z,56.40
2018-06-18T22:09:26.936Z,56.50
2018-06-18T22:13:00.188Z,56.50
2018-06-18T22:16:33.407Z,56.50
2018-06-18T22:20:06.687Z,56.60
2018-06-18T22:23:39.919Z,56.70
2018-06-18T22:27:13.152Z,56.70
2018-06-18T22:30:46.397Z,56.80
2018-06-18T22:34:19.711Z,56.90
2018-06-18T22:41:25.960Z,57.10
2018-06-18T22:44:59.207Z,57.40
2018-06-18T22:48:32.459Z,57.60
2018-06-18T22:55:38.689Z,58.00
2018-06-18T22:59:11.915Z,58.10
2018-06-18T23:02:45.165Z,58.30
2018-06-18T23:06:18.450Z,58.40
2018-06-18T23:09:51.699Z,58.50
2018-06-18T23:13:29.778Z,58.60
2018-06-18T23:17:03.013Z,58.70
2018-06-18T23:20:36.281Z,58.70
2018-06-18T23:24:09.547Z,58.80
2018-06-18T23:27:42.802Z,58.80
2018-06-18T23:31:16.239Z,58.70
2018-06-18T23:34:49.485Z,58.80
2018-06-18T23:38:22.736Z,58.90
2018-06-18T23:41:57.061Z,59.10
2018-06-18T23:45:30.296Z,59.20
2018-06-18T23:52:36.503Z,59.50
2018-06-18T23:56:09.725Z,59.60
2018-06-18T23:59:43.067Z,59.80
